Sasakwa, Oklahoma
Current Conditions -  °F | °C
As of 7:35 AM on Sunday 23 Nov 2014 (Local Time) from KADH Reporting Station
Overcast Overcast  
Wind Chill: 55°   Ceiling: 800
Heat Index: 55°   Visibility: 10mi
Dew Point: 55°   Wind: 16mph
Humidity: 100%   Direction: 160°SSE
Pressure: 29.52"   Gusts: 22mph
Location:  34.95°N, 96.53°W
Report Text: KADH 231335Z AUTO 16014G19KT 10SM OVC008 13/13 A2952 RMK AO2
Loading
Personal Weather Stations






























Interactive Weather Map New forecast layout! Learn more

10-Day Weather Forecast

Advertisements
Track Severe Weather on mobile